createdAt,value
2018-01-20T00:00:05.914Z,78.57
2018-01-20T00:02:33.419Z,78.59
2018-01-20T00:05:01.005Z,78.28
2018-01-20T00:07:28.490Z,77.83
2018-01-20T00:10:07.750Z,77.95
2018-01-20T00:12:35.257Z,77.95
2018-01-20T00:15:02.771Z,78.02
2018-01-20T00:17:30.300Z,78.15
2018-01-20T00:19:57.800Z,78.21
2018-01-20T00:22:25.331Z,78.37
2018-01-20T00:24:58.486Z,77.84
2018-01-20T00:27:26.023Z,77.88
2018-01-20T00:30:00.950Z,77.73
2018-01-20T00:32:28.433Z,77.73
2018-01-20T00:34:56.074Z,77.72
2018-01-20T00:37:23.604Z,78.27
2018-01-20T00:39:51.095Z,77.80
2018-01-20T00:42:18.559Z,77.56
2018-01-20T00:44:46.021Z,77.45
2018-01-20T00:47:13.571Z,77.31
2018-01-20T00:49:41.049Z,77.56
2018-01-20T00:52:08.538Z,77.55
2018-01-20T00:54:36.044Z,77.40
2018-01-20T00:57:03.566Z,77.74
2018-01-20T00:59:31.058Z,77.51
2018-01-20T01:01:58.553Z,77.56
2018-01-20T01:04:26.046Z,77.18
2018-01-20T01:06:53.610Z,77.11
2018-01-20T01:09:21.123Z,77.37
2018-01-20T01:11:48.570Z,76.97
2018-01-20T01:14:16.032Z,77.00
2018-01-20T01:16:43.491Z,77.16
2018-01-20T01:19:11.002Z,77.10
2018-01-20T01:21:38.492Z,77.07
2018-01-20T01:24:06.040Z,76.79
2018-01-20T01:26:33.501Z,76.95
2018-01-20T01:29:01.180Z,77.19
2018-01-20T01:31:28.643Z,77.38
2018-01-20T01:33:56.120Z,77.08
2018-01-20T01:36:23.559Z,77.11
2018-01-20T01:38:51.016Z,77.32
2018-01-20T01:41:18.465Z,76.86
2018-01-20T01:43:45.962Z,76.79
2018-01-20T01:46:13.400Z,77.28
2018-01-20T01:48:40.851Z,77.34
2018-01-20T01:51:08.292Z,77.33
2018-01-20T01:53:35.765Z,77.32
2018-01-20T01:56:03.220Z,77.41
2018-01-20T01:58:31.383Z,77.61
2018-01-20T02:00:58.837Z,77.49
2018-01-20T02:03:26.329Z,77.62
2018-01-20T02:05:54.618Z,77.75
2018-01-20T02:08:22.130Z,77.65
2018-01-20T02:10:49.583Z,77.57
2018-01-20T02:13:17.083Z,77.31
2018-01-20T02:15:44.537Z,77.28
2018-01-20T02:18:12.071Z,77.46
2018-01-20T02:20:39.558Z,77.46
2018-01-20T02:23:07.023Z,77.97
2018-01-20T02:25:34.482Z,78.14
2018-01-20T02:28:01.976Z,78.71
2018-01-20T02:30:29.428Z,78.92
2018-01-20T02:32:56.907Z,79.27
2018-01-20T02:35:24.366Z,79.34
2018-01-20T02:37:51.823Z,79.35
2018-01-20T02:40:19.270Z,79.56
2018-01-20T02:42:46.731Z,79.98
2018-01-20T02:45:14.209Z,80.56
2018-01-20T02:47:41.690Z,81.39
2018-01-20T02:50:09.242Z,81.22
2018-01-20T02:52:36.743Z,81.29
2018-01-20T02:55:04.271Z,81.22
2018-01-20T02:57:31.725Z,81.38
2018-01-20T02:59:59.177Z,81.51
2018-01-20T03:02:26.664Z,81.71
2018-01-20T03:04:54.109Z,81.76
2018-01-20T03:07:21.637Z,81.80
2018-01-20T03:09:49.083Z,81.72
2018-01-20T03:12:16.545Z,81.72
2018-01-20T03:14:44.010Z,81.90
2018-01-20T03:17:11.557Z,81.50
2018-01-20T03:19:39.150Z,81.53
2018-01-20T03:22:06.578Z,81.58
2018-01-20T03:24:34.069Z,81.69
2018-01-20T03:27:01.533Z,81.67
2018-01-20T03:29:28.981Z,81.57
2018-01-20T03:31:56.494Z,81.66
2018-01-20T03:34:23.948Z,81.74
2018-01-20T03:36:51.403Z,81.05
2018-01-20T03:39:18.875Z,81.11
2018-01-20T03:41:46.738Z,80.83
2018-01-20T03:44:14.174Z,80.55
2018-01-20T03:46:41.619Z,80.56
2018-01-20T03:49:09.082Z,80.33
2018-01-20T03:51:36.597Z,80.39
2018-01-20T03:54:04.081Z,80.04
2018-01-20T03:56:31.559Z,80.11
2018-01-20T03:58:59.003Z,79.72
2018-01-20T04:01:26.479Z,79.72
2018-01-20T04:03:53.935Z,79.41
2018-01-20T04:06:21.411Z,79.52
2018-01-20T04:08:48.894Z,80.08
2018-01-20T04:11:16.336Z,80.37
2018-01-20T04:13:43.903Z,81.10
2018-01-20T04:16:11.364Z,82.06
2018-01-20T04:18:38.818Z,83.08
2018-01-20T04:21:06.382Z,83.62
2018-01-20T04:23:33.826Z,84.28
2018-01-20T04:26:01.284Z,84.84
2018-01-20T04:28:28.733Z,85.35
2018-01-20T04:30:56.187Z,85.68
2018-01-20T04:33:23.633Z,86.10
2018-01-20T04:35:51.084Z,86.53
2018-01-20T04:38:18.590Z,86.74
2018-01-20T04:40:46.120Z,87.08
2018-01-20T04:43:13.572Z,87.10
2018-01-20T04:45:41.057Z,87.21
2018-01-20T04:48:08.556Z,87.50
2018-01-20T04:50:36.052Z,87.56
2018-01-20T04:53:03.527Z,87.77
2018-01-20T04:55:30.979Z,87.81
2018-01-20T04:57:58.514Z,87.92
2018-01-20T05:00:25.957Z,87.96
2018-01-20T05:02:53.414Z,87.98
2018-01-20T05:05:20.863Z,87.95
2018-01-20T05:07:48.625Z,87.87
2018-01-20T05:10:16.114Z,87.90
2018-01-20T05:12:43.569Z,87.96
2018-01-20T05:15:11.065Z,88.00
2018-01-20T05:17:38.571Z,88.06
2018-01-20T05:20:06.030Z,87.89
2018-01-20T05:22:33.857Z,87.77
2018-01-20T05:25:01.309Z,87.78
2018-01-20T05:27:28.782Z,87.88
2018-01-20T05:29:56.238Z,88.04
2018-01-20T05:32:23.726Z,87.97
2018-01-20T05:34:51.201Z,87.97
2018-01-20T05:37:18.642Z,88.03
2018-01-20T05:39:46.131Z,87.78
2018-01-20T05:42:13.676Z,87.47
2018-01-20T05:44:42.148Z,87.67
2018-01-20T05:47:09.627Z,87.22
2018-01-20T05:49:37.134Z,87.41
2018-01-20T05:52:04.587Z,87.03
2018-01-20T05:54:32.072Z,86.96
2018-01-20T05:56:59.539Z,87.09
2018-01-20T05:59:27.038Z,86.89
2018-01-20T06:01:54.582Z,87.06
2018-01-20T06:04:22.077Z,86.98
2018-01-20T06:06:49.587Z,86.93
2018-01-20T06:09:17.092Z,86.98
2018-01-20T06:11:44.554Z,86.83
2018-01-20T06:14:12.005Z,86.96
2018-01-20T06:16:39.486Z,87.02
2018-01-20T06:19:07.084Z,87.13
2018-01-20T06:21:34.557Z,87.00
2018-01-20T06:24:02.043Z,87.03
2018-01-20T06:26:29.483Z,86.98
2018-01-20T06:28:57.294Z,86.96
2018-01-20T06:31:24.817Z,87.04
2018-01-20T06:33:52.380Z,86.80
2018-01-20T06:36:19.935Z,86.80
2018-01-20T06:38:47.418Z,86.64
2018-01-20T06:41:14.900Z,86.76
2018-01-20T06:43:42.576Z,86.26
2018-01-20T06:46:10.046Z,86.19
2018-01-20T06:48:38.723Z,85.96
2018-01-20T06:51:06.222Z,85.93
2018-01-20T06:53:33.734Z,85.77
2018-01-20T06:56:01.658Z,85.17
2018-01-20T06:58:29.208Z,85.21
2018-01-20T07:00:56.814Z,85.03
2018-01-20T07:03:25.665Z,85.06
2018-01-20T07:05:53.586Z,85.01
2018-01-20T07:08:21.075Z,84.83
2018-01-20T07:10:48.587Z,84.31
2018-01-20T07:13:16.058Z,84.27
2018-01-20T07:15:43.533Z,84.17
2018-01-20T07:18:11.007Z,83.65
2018-01-20T07:20:38.570Z,83.68
2018-01-20T07:23:06.130Z,83.55
2018-01-20T07:25:33.577Z,83.64
2018-01-20T07:28:01.063Z,83.65
2018-01-20T07:30:28.541Z,83.70
2018-01-20T07:32:56.652Z,83.70
2018-01-20T07:35:24.171Z,83.44
2018-01-20T07:37:51.648Z,83.37
2018-01-20T07:40:19.101Z,82.88
2018-01-20T07:42:46.638Z,82.88
2018-01-20T07:45:14.099Z,82.75
2018-01-20T07:47:42.404Z,82.65
2018-01-20T07:50:11.129Z,82.79
2018-01-20T07:52:38.629Z,82.55
2018-01-20T07:55:06.116Z,82.50
2018-01-20T07:57:33.603Z,82.49
2018-01-20T08:00:01.108Z,82.52
2018-01-20T08:02:29.492Z,82.48
2018-01-20T08:04:57.030Z,82.24
2018-01-20T08:07:24.554Z,82.21
2018-01-20T08:09:51.987Z,82.10
2018-01-20T08:12:19.483Z,82.32
2018-01-20T08:14:48.586Z,82.35
2018-01-20T08:17:16.095Z,82.30
2018-01-20T08:19:43.583Z,82.14
2018-01-20T08:22:11.075Z,81.99
2018-01-20T08:24:38.536Z,82.29
2018-01-20T08:27:06.814Z,81.78
2018-01-20T08:29:34.305Z,81.54
2018-01-20T08:32:01.785Z,81.84
2018-01-20T08:34:29.223Z,81.21
2018-01-20T08:36:56.787Z,81.57
2018-01-20T08:39:24.277Z,81.60
2018-01-20T08:41:51.764Z,81.58
2018-01-20T08:44:19.253Z,81.63
2018-01-20T08:46:46.770Z,81.55
2018-01-20T08:49:14.310Z,81.35
2018-01-20T08:51:41.922Z,81.23
2018-01-20T08:54:09.435Z,81.25
2018-01-20T08:56:36.897Z,81.48
2018-01-20T08:59:04.507Z,81.60
2018-01-20T09:01:32.020Z,81.13
2018-01-20T09:03:59.539Z,81.07
2018-01-20T09:06:27.020Z,81.09
2018-01-20T09:08:54.520Z,80.69
2018-01-20T09:11:22.101Z,80.45
2018-01-20T09:13:49.678Z,80.49
2018-01-20T09:16:17.221Z,80.53
2018-01-20T09:18:44.789Z,80.40
2018-01-20T09:21:12.462Z,80.64
2018-01-20T09:23:40.078Z,80.22
2018-01-20T09:26:07.628Z,79.74
2018-01-20T09:28:35.157Z,79.34
2018-01-20T09:31:02.779Z,78.84
2018-01-20T09:33:31.184Z,78.75
2018-01-20T09:35:59.019Z,77.61
2018-01-20T09:38:26.557Z,77.53
2018-01-20T09:40:54.181Z,77.27
2018-01-20T09:43:25.646Z,77.35
2018-01-20T09:45:54.066Z,77.49
2018-01-20T09:48:21.730Z,77.81
2018-01-20T09:50:49.228Z,77.81
2018-01-20T09:53:16.784Z,78.06
2018-01-20T09:55:44.327Z,78.00
2018-01-20T09:58:11.802Z,78.35
2018-01-20T10:00:39.289Z,78.34
2018-01-20T10:03:06.754Z,78.43
2018-01-20T10:05:34.301Z,78.62
2018-01-20T10:08:01.845Z,78.86
2018-01-20T10:10:29.321Z,79.14
2018-01-20T10:12:57.624Z,79.43
2018-01-20T10:15:25.784Z,79.43
2018-01-20T10:17:53.366Z,79.42
2018-01-20T10:20:25.867Z,79.84
2018-01-20T10:22:53.315Z,79.52
2018-01-20T10:25:20.860Z,79.79
2018-01-20T10:27:48.315Z,79.16
2018-01-20T10:30:15.862Z,79.07
2018-01-20T10:32:43.352Z,78.88
2018-01-20T10:35:10.830Z,78.94
2018-01-20T10:37:38.353Z,79.24
2018-01-20T10:40:05.922Z,78.61
2018-01-20T10:42:33.409Z,78.98
2018-01-20T10:45:00.987Z,78.62
2018-01-20T10:47:28.443Z,77.69
2018-01-20T10:49:56.048Z,77.44
2018-01-20T10:52:23.725Z,75.84
2018-01-20T10:54:51.209Z,75.93
2018-01-20T10:57:18.674Z,75.17
2018-01-20T10:59:46.160Z,75.42
2018-01-20T11:02:13.679Z,75.10
2018-01-20T11:04:41.223Z,74.51
2018-01-20T11:07:08.678Z,74.31
2018-01-20T11:09:36.152Z,74.54
2018-01-20T11:12:03.690Z,74.46
2018-01-20T11:14:31.209Z,74.46
2018-01-20T11:16:58.706Z,74.46
2018-01-20T11:19:26.271Z,73.66
2018-01-20T11:21:53.773Z,72.86
2018-01-20T11:24:21.487Z,72.77
2018-01-20T11:26:49.010Z,71.82
2018-01-20T11:29:16.444Z,71.66
2018-01-20T11:31:43.980Z,71.41
2018-01-20T11:34:11.440Z,70.26
2018-01-20T11:36:39.036Z,68.56
2018-01-20T11:39:06.544Z,67.95
2018-01-20T11:41:34.137Z,68.17
2018-01-20T11:44:01.639Z,68.42
2018-01-20T11:46:29.200Z,68.21
2018-01-20T11:48:56.759Z,68.46
2018-01-20T11:51:24.212Z,68.88
2018-01-20T11:53:51.780Z,68.55
2018-01-20T11:56:19.238Z,68.98
2018-01-20T11:58:46.761Z,69.70
2018-01-20T12:01:14.322Z,70.22
2018-01-20T12:03:41.853Z,70.44
2018-01-20T12:06:09.458Z,70.19
2018-01-20T12:08:36.968Z,69.87
2018-01-20T12:11:04.659Z,69.39
2018-01-20T12:13:32.223Z,67.36
2018-01-20T12:15:59.692Z,65.08
2018-01-20T12:18:27.257Z,62.60
2018-01-20T12:20:54.747Z,60.81
2018-01-20T12:23:22.335Z,59.90
2018-01-20T12:25:49.950Z,60.17
2018-01-20T12:28:17.525Z,61.29
2018-01-20T12:30:45.070Z,61.81
2018-01-20T12:33:12.577Z,61.82
2018-01-20T12:35:40.046Z,62.04
2018-01-20T12:38:07.524Z,62.58
2018-01-20T12:40:34.998Z,63.31
2018-01-20T12:43:02.439Z,63.11
2018-01-20T12:45:30.494Z,63.13
2018-01-20T12:47:57.979Z,64.56
2018-01-20T12:50:25.458Z,64.50
2018-01-20T12:52:53.041Z,64.26
2018-01-20T12:55:20.514Z,64.23
2018-01-20T12:57:48.052Z,64.05
2018-01-20T13:00:15.556Z,64.35
2018-01-20T13:02:43.102Z,64.97
2018-01-20T13:05:10.572Z,64.95
2018-01-20T13:07:38.093Z,64.90
2018-01-20T13:10:05.648Z,65.43
2018-01-20T13:12:33.268Z,65.23
2018-01-20T13:15:00.912Z,64.33
2018-01-20T13:17:28.367Z,62.83
2018-01-20T13:19:55.985Z,62.67
2018-01-20T13:22:23.623Z,60.99
2018-01-20T13:24:51.169Z,60.51
2018-01-20T13:27:18.671Z,61.29
2018-01-20T13:29:46.138Z,61.50
2018-01-20T13:32:13.606Z,62.26
2018-01-20T13:34:41.090Z,63.31
2018-01-20T13:37:08.592Z,62.70
2018-01-20T13:39:36.788Z,62.57
2018-01-20T13:42:04.307Z,63.47
2018-01-20T13:44:31.957Z,63.99
2018-01-20T13:46:59.412Z,63.89
2018-01-20T13:49:26.970Z,64.42
2018-01-20T13:51:54.441Z,64.65
2018-01-20T13:54:21.891Z,64.87
2018-01-20T13:56:49.384Z,64.95
2018-01-20T13:59:16.857Z,65.38
2018-01-20T14:01:44.326Z,65.18
2018-01-20T14:04:11.758Z,65.37
2018-01-20T14:06:39.277Z,65.18
2018-01-20T14:09:06.885Z,65.29
2018-01-20T14:11:34.351Z,65.68
2018-01-20T14:14:01.841Z,65.41
2018-01-20T14:16:29.301Z,65.64
2018-01-20T14:18:56.772Z,66.11
2018-01-20T14:21:24.243Z,66.51
2018-01-20T14:23:51.710Z,66.51
2018-01-20T14:26:19.190Z,66.52
2018-01-20T14:28:47.306Z,67.00
2018-01-20T14:31:14.784Z,67.13
2018-01-20T14:33:42.363Z,67.40
2018-01-20T14:36:09.824Z,67.49
2018-01-20T14:38:37.301Z,67.48
2018-01-20T14:41:04.801Z,67.79
2018-01-20T14:43:32.300Z,67.92
2018-01-20T14:45:59.761Z,68.10
2018-01-20T14:48:27.214Z,67.87
2018-01-20T14:50:54.705Z,67.87
2018-01-20T14:53:22.197Z,68.08
2018-01-20T14:55:50.436Z,68.35
2018-01-20T14:58:17.895Z,68.47
2018-01-20T15:00:45.376Z,68.94
2018-01-20T15:03:12.808Z,68.61
2018-01-20T15:05:40.286Z,68.79
2018-01-20T15:08:07.759Z,68.45
2018-01-20T15:10:40.200Z,68.17
2018-01-20T15:13:07.720Z,68.29
2018-01-20T15:15:35.237Z,68.28
2018-01-20T15:18:02.683Z,68.34
2018-01-20T15:20:30.208Z,68.47
2018-01-20T15:22:57.726Z,68.51
2018-01-20T15:25:26.019Z,68.27
2018-01-20T15:27:53.510Z,68.36
2018-01-20T15:30:21.060Z,68.30
2018-01-20T15:32:48.557Z,68.32
2018-01-20T15:35:16.213Z,68.07
2018-01-20T15:37:43.805Z,68.34
2018-01-20T15:40:11.311Z,68.22
2018-01-20T15:42:38.767Z,68.30
2018-01-20T15:45:06.278Z,68.40
2018-01-20T15:47:33.749Z,68.70
2018-01-20T15:50:01.322Z,68.58
2018-01-20T15:52:28.776Z,68.82
2018-01-20T15:54:56.344Z,68.83
2018-01-20T15:57:23.988Z,68.84
2018-01-20T15:59:51.661Z,68.92
2018-01-20T16:02:19.137Z,68.75
2018-01-20T16:04:46.715Z,68.74
2018-01-20T16:07:14.254Z,68.77
2018-01-20T16:09:41.810Z,68.72
2018-01-20T16:12:09.307Z,68.62
2018-01-20T16:14:36.877Z,68.79
2018-01-20T16:17:04.390Z,68.70
2018-01-20T16:19:31.893Z,68.85
2018-01-20T16:21:59.507Z,69.00
2018-01-20T16:24:26.967Z,69.15
2018-01-20T16:26:54.464Z,69.43
2018-01-20T16:29:21.996Z,69.49
2018-01-20T16:31:49.632Z,70.00
2018-01-20T16:34:17.242Z,69.37
2018-01-20T16:36:44.739Z,69.45
2018-01-20T16:39:12.210Z,69.45
2018-01-20T16:41:39.700Z,69.84
2018-01-20T16:44:07.177Z,69.79
2018-01-20T16:46:34.623Z,69.83
2018-01-20T16:49:02.165Z,69.74
2018-01-20T16:51:29.668Z,69.82
2018-01-20T16:53:57.180Z,70.07
2018-01-20T16:56:24.677Z,70.11
2018-01-20T16:58:52.224Z,70.32
2018-01-20T17:01:19.832Z,70.51
2018-01-20T17:03:47.351Z,70.46
2018-01-20T17:06:14.926Z,70.25
2018-01-20T17:08:42.373Z,70.38
2018-01-20T17:11:09.837Z,70.32
2018-01-20T17:13:37.349Z,70.27
2018-01-20T17:16:04.832Z,70.36
2018-01-20T17:18:32.275Z,70.43
2018-01-20T17:20:59.778Z,70.46
2018-01-20T17:23:27.436Z,70.59
2018-01-20T17:25:54.972Z,70.80
2018-01-20T17:28:22.446Z,70.78
2018-01-20T17:30:49.917Z,71.18
2018-01-20T17:33:17.449Z,71.19
2018-01-20T17:35:44.917Z,71.17
2018-01-20T17:38:12.434Z,71.30
2018-01-20T17:40:40.537Z,71.40
2018-01-20T17:43:08.092Z,71.54
2018-01-20T17:45:35.609Z,71.55
2018-01-20T17:48:03.075Z,71.57
2018-01-20T17:50:30.584Z,71.75
2018-01-20T17:52:58.137Z,71.89
2018-01-20T17:55:25.646Z,71.79
2018-01-20T17:57:53.143Z,71.80
2018-01-20T18:00:20.716Z,71.83
2018-01-20T18:02:48.222Z,72.25
2018-01-20T18:05:15.750Z,72.52
2018-01-20T18:07:43.314Z,72.41
2018-01-20T18:10:10.775Z,72.34
2018-01-20T18:12:38.284Z,72.50
2018-01-20T18:15:05.795Z,72.72
2018-01-20T18:17:33.248Z,72.58
2018-01-20T18:20:00.781Z,72.58
2018-01-20T18:22:28.226Z,72.70
2018-01-20T18:24:55.782Z,72.88
2018-01-20T18:27:23.266Z,72.67
2018-01-20T18:29:50.909Z,72.63
2018-01-20T18:32:18.471Z,72.70
2018-01-20T18:34:45.916Z,72.85
2018-01-20T18:37:13.480Z,72.67
2018-01-20T18:39:40.946Z,72.84
2018-01-20T18:42:08.496Z,73.00
2018-01-20T18:44:36.073Z,72.90
2018-01-20T18:47:03.619Z,72.96
2018-01-20T18:49:31.082Z,73.18
2018-01-20T18:51:58.613Z,73.22
2018-01-20T18:54:26.112Z,73.25
2018-01-20T18:56:53.553Z,73.40
2018-01-20T18:59:21.070Z,73.49
2018-01-20T19:01:48.582Z,73.23
2018-01-20T19:04:16.128Z,73.10
2018-01-20T19:06:43.655Z,73.11
2018-01-20T19:09:11.216Z,73.08
2018-01-20T19:11:38.683Z,73.18
2018-01-20T19:14:06.231Z,73.27
2018-01-20T19:16:33.721Z,73.01
2018-01-20T19:19:01.176Z,73.15
2018-01-20T19:21:28.678Z,73.02
2018-01-20T19:23:56.280Z,73.18
2018-01-20T19:26:23.816Z,73.45
2018-01-20T19:28:51.399Z,73.22
2018-01-20T19:31:18.901Z,73.62
2018-01-20T19:33:46.392Z,73.34
2018-01-20T19:36:13.862Z,73.44
2018-01-20T19:38:41.384Z,73.41
2018-01-20T19:41:08.919Z,73.32
2018-01-20T19:43:36.584Z,73.36
2018-01-20T19:46:04.151Z,73.22
2018-01-20T19:48:31.698Z,73.33
2018-01-20T19:50:59.242Z,73.45
2018-01-20T19:53:26.833Z,73.33
2018-01-20T19:55:54.411Z,73.45
2018-01-20T19:58:21.879Z,73.11
2018-01-20T20:00:49.365Z,72.98
2018-01-20T20:03:17.586Z,72.72
2018-01-20T20:05:45.047Z,72.72
2018-01-20T20:08:12.569Z,72.52
2018-01-20T20:10:40.070Z,72.54
2018-01-20T20:13:07.575Z,72.30
2018-01-20T20:15:35.080Z,72.16
2018-01-20T20:18:02.554Z,71.89
2018-01-20T20:20:30.166Z,71.35
2018-01-20T20:22:57.632Z,71.52
2018-01-20T20:25:25.146Z,71.69
2018-01-20T20:27:52.637Z,71.78
2018-01-20T20:30:20.201Z,71.96
2018-01-20T20:32:47.760Z,72.07
2018-01-20T20:35:15.241Z,71.95
2018-01-20T20:37:43.447Z,72.03
2018-01-20T20:40:10.931Z,71.65
2018-01-20T20:42:38.427Z,71.64
2018-01-20T20:45:06.077Z,72.15
2018-01-20T20:47:33.569Z,71.54
2018-01-20T20:50:01.067Z,71.69
2018-01-20T20:52:28.596Z,71.44
2018-01-20T20:54:56.215Z,71.14
2018-01-20T20:57:23.742Z,71.54
2018-01-20T20:59:51.344Z,71.47
2018-01-20T21:02:18.812Z,71.57
2018-01-20T21:04:46.534Z,71.44
2018-01-20T21:07:14.080Z,71.81
2018-01-20T21:09:41.625Z,71.69
2018-01-20T21:12:09.128Z,71.68
2018-01-20T21:14:37.657Z,71.51
2018-01-20T21:17:05.186Z,71.15
2018-01-20T21:19:32.784Z,71.17
2018-01-20T21:22:00.254Z,71.11
2018-01-20T21:24:27.719Z,70.76
2018-01-20T21:26:55.183Z,71.11
2018-01-20T21:29:22.670Z,71.08
2018-01-20T21:31:50.216Z,70.60
2018-01-20T21:34:17.719Z,70.69
2018-01-20T21:36:45.274Z,70.76
2018-01-20T21:39:14.620Z,70.58
2018-01-20T21:41:42.898Z,70.35
2018-01-20T21:44:10.411Z,70.72
2018-01-20T21:46:39.364Z,71.01
2018-01-20T21:49:06.966Z,70.47
2018-01-20T21:51:34.509Z,70.50
2018-01-20T21:54:02.069Z,70.81
2018-01-20T21:56:29.662Z,70.82
2018-01-20T21:58:57.193Z,70.59
2018-01-20T22:01:24.731Z,70.53
2018-01-20T22:03:52.639Z,70.75
2018-01-20T22:06:20.167Z,71.12
2018-01-20T22:08:47.656Z,71.26
2018-01-20T22:11:15.134Z,71.44
2018-01-20T22:13:42.621Z,71.42
2018-01-20T22:16:10.116Z,71.37
2018-01-20T22:18:37.611Z,71.74
2018-01-20T22:21:05.195Z,71.67
2018-01-20T22:23:32.750Z,71.69
2018-01-20T22:26:00.237Z,71.57
2018-01-20T22:28:27.892Z,71.70
2018-01-20T22:30:55.370Z,71.81
2018-01-20T22:33:22.869Z,71.91
2018-01-20T22:35:50.419Z,71.79
2018-01-20T22:38:17.865Z,71.68
2018-01-20T22:40:45.336Z,71.72
2018-01-20T22:43:12.849Z,71.68
2018-01-20T22:45:40.347Z,71.58
2018-01-20T22:48:07.894Z,71.65
2018-01-20T22:50:35.396Z,71.55
2018-01-20T22:53:02.927Z,71.61
2018-01-20T22:55:30.450Z,71.76
2018-01-20T22:57:58.069Z,71.67
2018-01-20T23:00:25.637Z,71.82
2018-01-20T23:02:53.152Z,71.75
2018-01-20T23:05:20.645Z,71.78
2018-01-20T23:07:48.138Z,71.77
2018-01-20T23:10:15.689Z,72.01
2018-01-20T23:12:43.354Z,72.13
2018-01-20T23:15:10.874Z,72.12
2018-01-20T23:17:38.471Z,72.04
2018-01-20T23:20:05.946Z,71.98
2018-01-20T23:22:33.470Z,71.98
2018-01-20T23:25:00.950Z,72.12
2018-01-20T23:27:28.442Z,72.10
2018-01-20T23:29:55.950Z,72.15
2018-01-20T23:32:23.448Z,72.13
2018-01-20T23:34:50.913Z,72.06
2018-01-20T23:37:18.412Z,72.10
2018-01-20T23:39:45.861Z,72.11
2018-01-20T23:42:13.616Z,72.26
2018-01-20T23:44:41.074Z,72.54
2018-01-20T23:47:08.585Z,72.20
2018-01-20T23:49:41.058Z,72.13
2018-01-20T23:52:08.637Z,72.37
2018-01-20T23:54:36.264Z,72.38
2018-01-20T23:57:03.799Z,72.33
2018-01-20T23:59:31.333Z,72.22
